Terminal Aerodrome Forecast
Issued by NWS

Home | Current Version | Previous Version | Graphics & Text | Print | Product List | Glossary On
Versions: 1 2 3 4 5 6 7 8 9 10 11 12 13 14 15 16 17 18
000
FTUS43 KMPX 181745
TAFAXN
TAF
KAXN 181745Z 1818/1918 02011KT P6SM -SHRA VCTS SCT040CB BKN080
     FM181900 03011KT P6SM SCT080 BKN150
     FM190000 05006KT P6SM SKC
     FM191100 13008KT P6SM FEW250=

USA.gov is the U.S. government's official web portal to all federal, state and local government web resources and services.